Time;durP1;ratioP1;P1;durP2;ratioP2;P2;SDS_P1;SDS_P2;PMS_P1;PMS_P2;Temp;Humidity;BMP_temperature;BMP_pressure;BME280_temperature;BME280_humidity;BME280_pressure;Samples;Min_cycle;Max_cycle;Signal;HPM_P1;HPM_P2
2021/04/21 00:01:51;;;;;;;8.45;5.03;;;;;;;;;;5035620;28;20081;-62
2021/04/21 00:04:17;;;;;;;9.32;5.35;;;;;;;;;;5037559;28;20640;-62
2021/04/21 00:06:43;;;;;;;8.00;5.18;;;;;;;;;;5022791;28;20723;-62
2021/04/21 00:09:14;;;;;;;8.82;5.15;;;;;;;;;;5024220;28;20033;-62
2021/04/21 00:11:41;;;;;;;7.03;4.85;;;;;;;;;;5037496;28;20717;-62
2021/04/21 00:14:07;;;;;;;8.13;4.45;;;;;;;;;;5035550;28;20051;-63
2021/04/21 00:16:33;;;;;;;8.68;5.20;;;;;;;;;;5036615;28;20025;-62
2021/04/21 00:19:00;;;;;;;10.05;6.00;;;;;;;;;;5021715;28;20113;-62
2021/04/21 00:21:28;;;;;;;6.97;4.82;;;;;;;;;;5027322;28;20044;-63
2021/04/21 00:23:54;;;;;;;8.07;5.10;;;;;;;;;;5037896;28;20025;-62
2021/04/21 00:26:21;;;;;;;9.68;5.07;;;;;;;;;;5035958;28;20090;-63
2021/04/21 00:28:47;;;;;;;9.02;5.05;;;;;;;;;;5023708;28;20163;-62
2021/04/21 00:31:16;;;;;;;8.77;4.65;;;;;;;;;;5004836;28;20037;-62
2021/04/21 00:33:43;;;;;;;8.73;4.90;;;;;;;;;;5036496;28;20811;-62
2021/04/21 00:36:11;;;;;;;7.22;5.18;;;;;;;;;;5038232;28;20464;-62
2021/04/21 00:38:37;;;;;;;10.73;5.45;;;;;;;;;;5036382;28;20031;-62
2021/04/21 00:41:10;;;;;;;10.68;5.18;;;;;;;;;;5039292;28;20020;-62
2021/04/21 00:43:53;;;;;;;18.30;6.10;;;;;;;;;;5037301;28;20980;-62
2021/04/21 00:46:31;;;;;;;7.35;4.93;;;;;;;;;;5040924;28;20047;-62
2021/04/21 00:49:12;;;;;;;10.32;4.72;;;;;;;;;;5036122;28;20033;-62
2021/04/21 00:51:42;;;;;;;5.45;4.63;;;;;;;;;;5036231;28;20024;-62
2021/04/21 00:54:11;;;;;;;8.48;5.13;;;;;;;;;;5036815;28;20024;-61
2021/04/21 00:56:55;;;;;;;10.63;5.28;;;;;;;;;;5039322;28;20802;-62
2021/04/21 00:59:45;;;;;;;9.63;5.35;;;;;;;;;;5022404;28;20060;-62
2021/04/21 01:02:13;;;;;;;7.10;4.30;;;;;;;;;;5039132;28;20044;-61
2021/04/21 01:04:41;;;;;;;9.25;4.97;;;;;;;;;;5040292;28;20111;-63
2021/04/21 01:07:07;;;;;;;14.18;4.60;;;;;;;;;;5036946;28;20052;-63
2021/04/21 01:09:33;;;;;;;7.00;4.65;;;;;;;;;;5022071;28;20063;-62
2021/04/21 01:12:02;;;;;;;5.93;4.28;;;;;;;;;;5046394;28;20058;-62
2021/04/21 01:14:30;;;;;;;5.78;4.35;;;;;;;;;;5040887;28;20045;-62
2021/04/21 01:17:04;;;;;;;7.78;4.15;;;;;;;;;;5040506;28;20032;-62
2021/04/21 01:19:39;;;;;;;5.90;4.05;;;;;;;;;;5044227;28;20050;-63
2021/04/21 01:22:21;;;;;;;6.30;4.07;;;;;;;;;;5039447;28;20422;-62
2021/04/21 01:24:53;;;;;;;8.73;4.78;;;;;;;;;;5040122;28;20037;-61
2021/04/21 01:27:27;;;;;;;10.27;5.35;;;;;;;;;;5026802;28;20648;-61
2021/04/21 01:29:54;;;;;;;9.88;5.30;;;;;;;;;;5038745;28;20219;-62
2021/04/21 01:32:19;;;;;;;7.30;4.43;;;;;;;;;;5037465;28;20879;-63
2021/04/21 01:34:46;;;;;;;7.57;5.03;;;;;;;;;;5036594;28;20036;-62
2021/04/21 01:37:20;;;;;;;9.48;5.28;;;;;;;;;;5040729;28;20025;-62
2021/04/21 01:39:51;;;;;;;8.23;4.68;;;;;;;;;;5039327;28;20031;-62
2021/04/21 01:42:17;;;;;;;7.97;4.80;;;;;;;;;;5037032;28;20182;-62
2021/04/21 01:44:45;;;;;;;7.22;4.45;;;;;;;;;;5039246;28;20475;-61
2021/04/21 01:47:19;;;;;;;8.10;4.63;;;;;;;;;;5039128;28;20036;-62
2021/04/21 01:49:45;;;;;;;;;;;;;;;;;;5041029;28;20037;-61
2021/04/21 01:52:30;;;;;;;6.22;4.03;;;;;;;;;;5041146;28;19924;-62
2021/04/21 01:54:57;;;;;;;5.22;4.30;;;;;;;;;;5037757;28;20082;-62
2021/04/21 01:57:35;;;;;;;4.85;3.80;;;;;;;;;;5039793;28;20020;-62
2021/04/21 02:00:21;;;;;;;6.78;4.63;;;;;;;;;;5040249;28;20028;-62
2021/04/21 02:02:58;;;;;;;8.13;4.57;;;;;;;;;;5039458;28;20373;-60
2021/04/21 02:05:36;;;;;;;8.27;4.15;;;;;;;;;;5037005;28;20036;-61
2021/04/21 02:08:14;;;;;;;11.07;4.13;;;;;;;;;;5027504;28;20071;-60
2021/04/21 02:11:00;;;;;;;9.38;4.63;;;;;;;;;;5037308;28;20733;-63
2021/04/21 02:13:40;;;;;;;6.75;4.65;;;;;;;;;;5007859;28;20099;-62
2021/04/21 02:16:24;;;;;;;13.60;5.10;;;;;;;;;;5036825;28;20538;-62
2021/04/21 02:19:09;;;;;;;6.97;4.65;;;;;;;;;;5040904;28;20078;-61
2021/04/21 02:21:56;;;;;;;10.52;4.50;;;;;;;;;;5037498;28;20546;-62
2021/04/21 02:24:47;;;;;;;6.90;4.13;;;;;;;;;;5036900;28;20032;-62
2021/04/21 02:27:30;;;;;;;5.53;3.72;;;;;;;;;;5016565;28;20993;-61
2021/04/21 02:30:00;;;;;;;7.32;4.47;;;;;;;;;;5044186;28;21101;-62
2021/04/21 02:32:37;;;;;;;6.82;4.03;;;;;;;;;;5036175;28;20600;-62
2021/04/21 02:35:13;;;;;;;7.32;4.32;;;;;;;;;;5041155;28;20124;-62
2021/04/21 02:37:48;;;;;;;9.25;5.07;;;;;;;;;;5041804;28;20028;-61
2021/04/21 02:40:33;;;;;;;8.32;5.05;;;;;;;;;;5037774;28;21992;-61
2021/04/21 02:43:05;;;;;;;6.15;4.18;;;;;;;;;;5039471;28;20025;-62
2021/04/21 02:45:37;;;;;;;8.55;4.40;;;;;;;;;;5039686;28;20060;-63
2021/04/21 02:48:03;;;;;;;6.53;3.70;;;;;;;;;;5036741;28;20125;-62
2021/04/21 02:50:41;;;;;;;6.47;4.53;;;;;;;;;;5040069;28;20129;-61
2021/04/21 02:53:13;;;;;;;7.72;4.88;;;;;;;;;;5036127;28;20039;-61
2021/04/21 02:55:46;;;;;;;8.05;5.25;;;;;;;;;;5039983;28;20135;-61
2021/04/21 02:58:31;;;;;;;5.68;4.07;;;;;;;;;;5036333;28;20029;-61
2021/04/21 03:01:04;;;;;;;8.03;5.20;;;;;;;;;;5037684;28;20098;-61
2021/04/21 03:03:51;;;;;;;6.90;4.63;;;;;;;;;;5034629;28;20044;-61
2021/04/21 03:06:27;;;;;;;6.03;4.25;;;;;;;;;;5037108;28;20072;-62
2021/04/21 03:09:00;;;;;;;8.10;4.93;;;;;;;;;;5042983;28;20116;-62
2021/04/21 03:11:33;;;;;;;6.22;4.32;;;;;;;;;;5036522;28;20036;-62
2021/04/21 03:14:09;;;;;;;9.82;5.22;;;;;;;;;;5022861;28;20051;-61
2021/04/21 03:16:41;;;;;;;7.82;4.93;;;;;;;;;;5038220;28;20136;-61
2021/04/21 03:19:08;;;;;;;8.30;4.68;;;;;;;;;;5040899;28;20468;-61
2021/04/21 03:21:39;;;;;;;10.77;5.50;;;;;;;;;;5037075;28;20048;-61
2021/04/21 03:24:16;;;;;;;11.13;4.80;;;;;;;;;;5024281;28;20247;-61
2021/04/21 03:26:44;;;;;;;6.57;4.45;;;;;;;;;;5037850;28;20564;-61
2021/04/21 03:29:12;;;;;;;7.63;4.80;;;;;;;;;;5039271;28;20121;-61
2021/04/21 03:31:39;;;;;;;9.48;5.18;;;;;;;;;;5033876;28;20036;-62
2021/04/21 03:34:10;;;;;;;4.97;4.35;;;;;;;;;;5043356;28;20048;-62
2021/04/21 03:36:37;;;;;;;9.73;4.82;;;;;;;;;;5033731;28;20045;-61
2021/04/21 03:39:04;;;;;;;8.30;4.63;;;;;;;;;;5037543;28;20032;-62
2021/04/21 03:41:29;;;;;;;7.72;4.80;;;;;;;;;;5027503;28;20111;-61
2021/04/21 03:43:55;;;;;;;4.32;3.88;;;;;;;;;;5020018;28;20835;-62
2021/04/21 03:46:25;;;;;;;9.55;5.20;;;;;;;;;;5035743;28;20029;-61
2021/04/21 03:48:54;;;;;;;7.43;4.53;;;;;;;;;;5045166;28;20033;-62
2021/04/21 03:51:20;;;;;;;12.32;5.10;;;;;;;;;;5042249;28;20078;-63
2021/04/21 03:53:47;;;;;;;6.63;4.30;;;;;;;;;;5038161;28;20642;-62
2021/04/21 03:56:16;;;;;;;6.18;4.88;;;;;;;;;;5040843;28;20037;-62
2021/04/21 03:58:43;;;;;;;7.30;4.93;;;;;;;;;;5043754;28;20028;-62
2021/04/21 04:01:17;;;;;;;6.30;5.00;;;;;;;;;;5036956;28;20035;-62
2021/04/21 04:03:58;;;;;;;7.95;4.75;;;;;;;;;;5037619;28;20024;-61
2021/04/21 04:06:24;;;;;;;11.02;5.57;;;;;;;;;;5045179;28;20139;-61
2021/04/21 04:08:53;;;;;;;7.10;4.70;;;;;;;;;;5039423;28;20491;-61
2021/04/21 04:11:27;;;;;;;7.78;4.80;;;;;;;;;;5055210;28;20150;-62
2021/04/21 04:13:58;;;;;;;5.28;3.88;;;;;;;;;;5025467;28;20040;-63
2021/04/21 04:16:26;;;;;;;5.10;4.10;;;;;;;;;;5059140;28;20123;-61
2021/04/21 04:18:56;;;;;;;5.65;3.88;;;;;;;;;;5059406;28;20043;-63
2021/04/21 04:21:27;;;;;;;4.80;3.30;;;;;;;;;;5040881;28;20554;-61
2021/04/21 04:23:56;;;;;;;4.80;3.47;;;;;;;;;;5042945;28;20047;-62
2021/04/21 04:26:23;;;;;;;6.32;4.22;;;;;;;;;;5040786;28;20035;-61
2021/04/21 04:28:51;;;;;;;4.82;3.60;;;;;;;;;;5024198;28;20043;-61
2021/04/21 04:31:19;;;;;;;6.25;3.97;;;;;;;;;;5056435;28;20032;-62
2021/04/21 04:33:45;;;;;;;8.85;5.30;;;;;;;;;;5056449;28;20032;-62
2021/04/21 04:36:11;;;;;;;8.38;4.55;;;;;;;;;;5029895;28;20081;-62
2021/04/21 04:38:36;;;;;;;3.88;3.40;;;;;;;;;;5042485;28;20490;-61
2021/04/21 04:41:02;;;;;;;7.45;4.22;;;;;;;;;;5044363;28;20024;-62
2021/04/21 04:43:34;;;;;;;7.78;4.65;;;;;;;;;;5045085;28;20038;-61
2021/04/21 04:46:00;;;;;;;8.68;4.95;;;;;;;;;;5062221;28;20891;-61
2021/04/21 04:48:39;;;;;;;13.05;6.43;;;;;;;;;;5025510;28;20044;-62
2021/04/21 04:51:08;;;;;;;10.60;6.65;;;;;;;;;;5031324;28;20020;-60
2021/04/21 04:53:34;;;;;;;9.02;5.32;;;;;;;;;;5058975;28;20033;-61
2021/04/21 04:56:01;;;;;;;12.02;5.45;;;;;;;;;;5044729;28;20046;-61
2021/04/21 04:58:27;;;;;;;9.43;5.53;;;;;;;;;;5030293;28;20056;-62
2021/04/21 05:00:58;;;;;;;11.10;5.38;;;;;;;;;;5045100;28;20032;-61
2021/04/21 05:03:31;;;;;;;9.23;5.15;;;;;;;;;;5031155;28;20118;-61
2021/04/21 05:05:58;;;;;;;8.00;5.32;;;;;;;;;;5023381;28;20243;-61
2021/04/21 05:08:40;;;;;;;9.68;4.75;;;;;;;;;;5042086;28;20124;-61
2021/04/21 05:11:07;;;;;;;8.35;5.28;;;;;;;;;;5042245;28;20603;-63
2021/04/21 05:13:40;;;;;;;4.97;3.95;;;;;;;;;;5060093;28;20036;-61
2021/04/21 05:16:08;;;;;;;5.22;4.05;;;;;;;;;;5043890;28;20029;-62
2021/04/21 05:19:04;;;;;;;6.60;4.50;;;;;;;;;;5043917;28;20059;-62
2021/04/21 05:21:48;;;;;;;4.20;3.53;;;;;;;;;;5048775;28;20036;-62
2021/04/21 05:24:34;;;;;;;5.35;4.25;;;;;;;;;;5026359;28;20404;-62
2021/04/21 05:27:22;;;;;;;5.32;4.18;;;;;;;;;;5056535;28;20068;-61
2021/04/21 05:29:54;;;;;;;6.47;4.63;;;;;;;;;;5041107;28;20043;-61
2021/04/21 05:32:43;;;;;;;6.25;4.97;;;;;;;;;;5058423;28;20035;-62
2021/04/21 05:35:15;;;;;;;5.50;4.22;;;;;;;;;;5023927;28;21105;-61
2021/04/21 05:37:59;;;;;;;5.53;4.55;;;;;;;;;;5048704;28;20044;-62
2021/04/21 05:40:44;;;;;;;6.37;3.90;;;;;;;;;;5060727;28;20039;-62
2021/04/21 05:43:32;;;;;;;5.25;4.05;;;;;;;;;;5060841;28;20326;-63
2021/04/21 05:46:17;;;;;;;6.40;4.13;;;;;;;;;;5041644;28;20630;-64
2021/04/21 05:48:49;;;;;;;8.73;5.90;;;;;;;;;;5041781;28;20154;-60
2021/04/21 05:51:39;;;;;;;9.52;6.05;;;;;;;;;;5040800;28;20039;-63
2021/04/21 05:54:23;;;;;;;8.10;6.07;;;;;;;;;;5042267;28;20023;-63
2021/04/21 05:56:52;;;;;;;11.65;6.25;;;;;;;;;;5041889;28;21162;-60
2021/04/21 05:59:18;;;;;;;8.70;5.95;;;;;;;;;;5029234;28;20256;-62
2021/04/21 06:01:54;;;;;;;10.05;7.10;;;;;;;;;;5043365;28;20074;-63
2021/04/21 06:04:20;;;;;;;12.20;7.55;;;;;;;;;;5046084;28;20992;-60
2021/04/21 06:06:46;;;;;;;12.27;8.10;;;;;;;;;;5059582;28;20130;-62
2021/04/21 06:09:12;;;;;;;12.02;7.47;;;;;;;;;;5030702;28;20036;-62
2021/04/21 06:11:38;;;;;;;14.85;7.65;;;;;;;;;;5042791;28;20043;-63
2021/04/21 06:14:05;;;;;;;12.10;7.82;;;;;;;;;;5021519;28;20045;-64
2021/04/21 06:16:35;;;;;;;18.02;9.38;;;;;;;;;;5027517;28;20024;-62
2021/04/21 06:19:05;;;;;;;15.23;9.43;;;;;;;;;;5040612;28;20025;-62
2021/04/21 06:21:34;;;;;;;20.13;10.02;;;;;;;;;;5024170;28;20040;-62
2021/04/21 06:24:00;;;;;;;19.92;9.55;;;;;;;;;;5053566;28;20132;-61
2021/04/21 06:26:30;;;;;;;15.02;9.55;;;;;;;;;;5057466;28;20070;-62
2021/04/21 06:28:57;;;;;;;22.77;12.43;;;;;;;;;;5058991;28;20151;-62
2021/04/21 06:31:32;;;;;;;25.08;13.02;;;;;;;;;;5029390;28;20048;-63
2021/04/21 06:34:01;;;;;;;27.17;13.10;;;;;;;;;;5040023;28;22154;-63
2021/04/21 06:36:35;;;;;;;33.90;15.60;;;;;;;;;;5039619;28;20210;-62
2021/04/21 06:39:01;;;;;;;35.70;14.85;;;;;;;;;;5041721;28;20025;-62
2021/04/21 06:41:30;;;;;;;34.22;13.15;;;;;;;;;;5041407;28;20678;-63
2021/04/21 06:44:08;;;;;;;35.15;14.52;;;;;;;;;;5057979;28;20063;-63
2021/04/21 06:46:37;;;;;;;30.73;13.73;;;;;;;;;;5059103;28;20033;-63
2021/04/21 06:49:04;;;;;;;30.70;12.80;;;;;;;;;;5057635;28;20039;-63
2021/04/21 06:51:41;;;;;;;33.13;13.68;;;;;;;;;;5024070;28;20125;-63
2021/04/21 06:54:10;;;;;;;35.30;15.02;;;;;;;;;;5024745;28;20067;-63
2021/04/21 06:56:36;;;;;;;31.50;14.18;;;;;;;;;;5040095;28;20039;-63
2021/04/21 06:59:05;;;;;;;37.65;14.40;;;;;;;;;;5058401;28;20035;-63
2021/04/21 07:01:31;;;;;;;34.20;14.35;;;;;;;;;;5041326;28;20090;-63
2021/04/21 07:04:09;;;;;;;41.53;16.02;;;;;;;;;;5058754;28;20143;-63
2021/04/21 07:06:34;;;;;;;36.30;15.15;;;;;;;;;;5045906;28;20053;-63
2021/04/21 07:09:00;;;;;;;39.97;14.75;;;;;;;;;;5040912;28;20040;-63
2021/04/21 07:11:26;;;;;;;33.63;13.95;;;;;;;;;;5057488;28;20090;-65
2021/04/21 07:13:52;;;;;;;30.95;14.13;;;;;;;;;;5046991;28;20032;-64
2021/04/21 07:16:23;;;;;;;31.15;14.23;;;;;;;;;;5040145;28;20060;-64
2021/04/21 07:18:59;;;;;;;37.03;15.27;;;;;;;;;;5041391;28;20052;-63
2021/04/21 07:21:29;;;;;;;31.92;13.63;;;;;;;;;;5057595;28;20533;-62
2021/04/21 07:24:07;;;;;;;33.15;15.20;;;;;;;;;;5043633;28;20028;-63
2021/04/21 07:26:43;;;;;;;27.27;14.02;;;;;;;;;;5040915;28;20032;-63
2021/04/21 07:29:16;;;;;;;40.17;15.25;;;;;;;;;;5039995;28;20128;-63
2021/04/21 07:31:44;;;;;;;34.88;13.95;;;;;;;;;;5056882;28;20502;-62
2021/04/21 07:34:11;;;;;;;34.97;14.65;;;;;;;;;;5039865;28;20119;-63
2021/04/21 07:36:54;;;;;;;28.10;12.98;;;;;;;;;;5056966;28;22162;-64
2021/04/21 07:39:20;;;;;;;29.55;13.32;;;;;;;;;;5059387;28;20102;-63
2021/04/21 07:41:52;;;;;;;24.20;12.27;;;;;;;;;;5059305;28;22341;-63
2021/04/21 07:44:28;;;;;;;28.00;13.32;;;;;;;;;;5030401;28;20032;-63
2021/04/21 07:47:05;;;;;;;31.60;13.93;;;;;;;;;;5056958;28;20036;-63
2021/04/21 07:49:34;;;;;;;29.02;12.80;;;;;;;;;;5047064;28;20034;-64
2021/04/21 07:52:00;;;;;;;25.70;12.55;;;;;;;;;;5044499;28;20426;-65
2021/04/21 07:54:27;;;;;;;29.70;12.35;;;;;;;;;;5045433;28;20032;-63
2021/04/21 07:56:55;;;;;;;30.15;12.23;;;;;;;;;;5056424;28;20033;-65
2021/04/21 07:59:22;;;;;;;32.13;12.15;;;;;;;;;;5055823;28;20025;-64
2021/04/21 08:01:52;;;;;;;28.25;12.52;;;;;;;;;;5040578;28;20046;-64
2021/04/21 08:04:29;;;;;;;27.17;11.75;;;;;;;;;;5058295;28;20090;-64
2021/04/21 08:06:57;;;;;;;19.70;10.57;;;;;;;;;;5029183;28;20036;-64
2021/04/21 08:09:23;;;;;;;18.85;9.38;;;;;;;;;;5059250;28;20125;-65
2021/04/21 08:12:12;;;;;;;23.08;9.35;;;;;;;;;;5024123;28;20032;-64
2021/04/21 08:14:39;;;;;;;20.50;7.85;;;;;;;;;;5026650;28;20504;-65
2021/04/21 08:17:05;;;;;;;18.30;8.10;;;;;;;;;;5040793;28;20024;-64
2021/04/21 08:19:37;;;;;;;19.02;8.07;;;;;;;;;;5039709;28;20044;-62
2021/04/21 08:22:05;;;;;;;29.05;7.93;;;;;;;;;;5055390;28;20767;-63
2021/04/21 08:24:37;;;;;;;17.58;8.18;;;;;;;;;;5057224;28;20112;-63
2021/04/21 08:27:05;;;;;;;14.38;7.57;;;;;;;;;;5053532;28;20036;-64
2021/04/21 08:29:37;;;;;;;14.13;7.32;;;;;;;;;;5038467;28;20036;-63
2021/04/21 08:32:04;;;;;;;15.65;7.28;;;;;;;;;;5036877;28;20028;-63
2021/04/21 08:34:29;;;;;;;16.08;6.72;;;;;;;;;;5043474;28;20036;-63
2021/04/21 08:36:59;;;;;;;9.90;5.88;;;;;;;;;;5036844;28;20082;-63
2021/04/21 08:39:25;;;;;;;7.82;5.07;;;;;;;;;;5059288;28;20031;-63
2021/04/21 08:42:00;;;;;;;11.32;5.05;;;;;;;;;;5039152;28;20025;-65
2021/04/21 08:44:35;;;;;;;9.98;4.05;;;;;;;;;;5058638;28;20229;-63
2021/04/21 08:47:03;;;;;;;9.38;3.10;;;;;;;;;;5054919;28;20102;-63
2021/04/21 08:49:33;;;;;;;5.07;2.33;;;;;;;;;;5024928;28;20028;-65
2021/04/21 08:52:01;;;;;;;2.97;1.70;;;;;;;;;;5038442;28;20134;-65
2021/04/21 08:54:35;;;;;;;9.63;1.13;;;;;;;;;;5039754;28;20442;-63
2021/04/21 08:57:04;;;;;;;3.40;1.42;;;;;;;;;;5038766;28;20040;-63
2021/04/21 08:59:37;;;;;;;7.88;1.20;;;;;;;;;;5045161;28;20028;-64
2021/04/21 09:02:06;;;;;;;2.42;0.75;;;;;;;;;;5050587;28;20046;-64
2021/04/21 09:04:35;;;;;;;4.50;0.88;;;;;;;;;;5057031;28;20037;-63
2021/04/21 09:07:01;;;;;;;2.15;1.10;;;;;;;;;;5033738;28;20640;-65
2021/04/21 09:09:27;;;;;;;5.68;1.05;;;;;;;;;;5037106;28;20044;-64
2021/04/21 09:11:53;;;;;;;3.28;0.95;;;;;;;;;;5035165;28;20054;-64
2021/04/21 09:14:23;;;;;;;3.60;0.70;;;;;;;;;;5018905;28;20037;-66
2021/04/21 09:16:48;;;;;;;5.35;0.70;;;;;;;;;;5021055;28;20060;-64
2021/04/21 09:19:18;;;;;;;3.20;0.57;;;;;;;;;;5035911;28;20031;-65
2021/04/21 09:21:44;;;;;;;4.35;0.85;;;;;;;;;;5033456;28;20032;-65
2021/04/21 09:24:11;;;;;;;2.03;0.80;;;;;;;;;;5040940;28;20036;-65
2021/04/21 09:26:37;;;;;;;1.30;0.40;;;;;;;;;;5037000;28;20029;-65
2021/04/21 09:29:03;;;;;;;2.42;0.60;;;;;;;;;;5038966;28;20032;-65
2021/04/21 09:31:30;;;;;;;2.58;0.80;;;;;;;;;;5037199;28;20039;-65
2021/04/21 09:34:12;;;;;;;1.20;0.22;;;;;;;;;;5041095;28;20037;-65
2021/04/21 09:36:43;;;;;;;4.60;0.95;;;;;;;;;;5036957;28;20032;-66
2021/04/21 09:39:16;;;;;;;5.28;1.25;;;;;;;;;;5039370;28;20052;-66
2021/04/21 09:41:42;;;;;;;5.20;1.20;;;;;;;;;;5040348;28;20039;-65
2021/04/21 09:44:11;;;;;;;6.03;0.93;;;;;;;;;;5028182;28;20033;-65
2021/04/21 09:46:43;;;;;;;7.03;1.42;;;;;;;;;;5040055;28;20115;-64
2021/04/21 09:49:48;;;;;;;4.13;0.63;;;;;;;;;;5040713;28;20028;-65
2021/04/21 09:52:13;;;;;;;5.20;1.10;;;;;;;;;;4945978;28;20136;-65
2021/04/21 09:54:45;;;;;;;3.38;0.77;;;;;;;;;;5007525;28;20032;-65
2021/04/21 09:57:12;;;;;;;3.85;0.80;;;;;;;;;;5039400;28;20056;-64
2021/04/21 09:59:52;;;;;;;1.77;0.77;;;;;;;;;;5041565;28;20037;-65
2021/04/21 10:02:33;;;;;;;7.45;1.10;;;;;;;;;;5021966;28;20123;-65
2021/04/21 10:05:18;;;;;;;3.67;1.02;;;;;;;;;;5042352;28;20044;-65
2021/04/21 10:08:11;;;;;;;3.67;0.90;;;;;;;;;;5041399;28;20090;-66
2021/04/21 10:10:57;;;;;;;7.13;1.10;;;;;;;;;;5040699;28;20039;-65
2021/04/21 10:13:23;;;;;;;3.10;1.00;;;;;;;;;;5040266;28;20032;-66
2021/04/21 10:16:07;;;;;;;7.78;1.30;;;;;;;;;;5041149;28;20173;-63
2021/04/21 10:18:37;;;;;;;12.48;1.75;;;;;;;;;;5024035;28;20037;-62
2021/04/21 10:21:06;;;;;;;7.05;1.30;;;;;;;;;;5037281;28;20059;-63
2021/04/21 10:23:35;;;;;;;5.28;1.25;;;;;;;;;;5043368;28;20025;-64
2021/04/21 10:26:09;;;;;;;11.20;1.52;;;;;;;;;;5038679;28;20029;-66
2021/04/21 10:28:40;;;;;;;10.60;1.92;;;;;;;;;;5036172;28;20035;-65
2021/04/21 10:31:07;;;;;;;7.68;1.70;;;;;;;;;;5021935;28;20570;-65
2021/04/21 10:33:33;;;;;;;7.63;1.55;;;;;;;;;;5037135;28;20564;-67
2021/04/21 10:36:03;;;;;;;8.80;1.48;;;;;;;;;;5037390;28;20025;-66
2021/04/21 10:38:29;;;;;;;7.63;1.45;;;;;;;;;;5038379;28;20025;-65
2021/04/21 10:41:25;;;;;;;8.05;1.85;;;;;;;;;;5036981;28;20029;-64
2021/04/21 10:44:07;;;;;;;7.05;1.33;;;;;;;;;;5036437;28;20055;-65
2021/04/21 10:46:51;;;;;;;6.40;1.25;;;;;;;;;;5033505;28;20879;-64
2021/04/21 10:49:36;;;;;;;6.35;1.13;;;;;;;;;;5039367;28;20490;-65
2021/04/21 10:52:12;;;;;;;10.07;1.65;;;;;;;;;;5037466;28;20147;-64
2021/04/21 10:54:40;;;;;;;9.60;1.35;;;;;;;;;;5038151;28;20051;-64
2021/04/21 10:57:21;;;;;;;7.75;1.65;;;;;;;;;;5037931;28;20036;-65
2021/04/21 11:00:08;;;;;;;6.88;1.85;;;;;;;;;;5039417;28;20718;-68
2021/04/21 11:02:43;;;;;;;9.70;1.52;;;;;;;;;;5036891;28;20042;-65
2021/04/21 11:05:29;;;;;;;11.88;1.55;;;;;;;;;;5037693;28;20594;-64
2021/04/21 11:08:23;;;;;;;7.85;1.25;;;;;;;;;;5034910;28;20650;-67
2021/04/21 11:10:53;;;;;;;5.45;1.10;;;;;;;;;;5035910;28;20040;-65
2021/04/21 11:13:28;;;;;;;6.63;1.95;;;;;;;;;;5028166;28;20096;-64
2021/04/21 11:16:28;;;;;;;14.13;1.67;;;;;;;;;;5036552;28;20037;-64
2021/04/21 11:18:54;;;;;;;10.43;2.17;;;;;;;;;;5036031;28;20024;-64
2021/04/21 11:21:23;;;;;;;6.15;1.70;;;;;;;;;;5038140;28;20479;-64
2021/04/21 11:23:55;;;;;;;5.63;1.65;;;;;;;;;;5035549;28;20040;-66
2021/04/21 11:26:28;;;;;;;6.85;2.00;;;;;;;;;;5037876;28;22190;-65
2021/04/21 11:29:04;;;;;;;4.85;1.67;;;;;;;;;;5037402;28;20025;-64
2021/04/21 11:31:45;;;;;;;6.93;1.25;;;;;;;;;;5039577;28;20036;-65
2021/04/21 11:34:16;;;;;;;4.35;1.60;;;;;;;;;;5038848;28;20036;-65
2021/04/21 11:36:55;;;;;;;7.68;1.40;;;;;;;;;;5037335;28;20142;-65
2021/04/21 11:39:39;;;;;;;6.57;1.40;;;;;;;;;;5034305;28;20045;-63
2021/04/21 11:42:05;;;;;;;;;;;;;;;;;;5037163;28;20033;-69
2021/04/21 11:45:06;;;;;;;8.07;1.08;;;;;;;;;;5035259;28;19926;-65
2021/04/21 11:47:41;;;;;;;10.02;1.98;;;;;;;;;;5006045;28;20041;-70
2021/04/21 11:50:16;;;;;;;9.35;2.13;;;;;;;;;;5038379;28;20525;-64
2021/04/21 11:52:47;;;;;;;5.13;1.40;;;;;;;;;;5040411;28;20253;-67
2021/04/21 11:55:27;;;;;;;3.45;0.88;;;;;;;;;;5038143;28;20094;-66
2021/04/21 11:58:04;;;;;;;6.85;1.40;;;;;;;;;;5036187;28;20025;-66
2021/04/21 12:00:36;;;;;;;6.57;1.15;;;;;;;;;;5036123;28;20021;-66
2021/04/21 12:03:11;;;;;;;7.13;2.10;;;;;;;;;;5036391;28;20023;-65
2021/04/21 12:05:38;;;;;;;6.38;1.40;;;;;;;;;;5038151;28;21354;-66
2021/04/21 12:08:06;;;;;;;8.77;1.52;;;;;;;;;;5021257;28;20165;-68
2021/04/21 12:10:36;;;;;;;3.72;1.00;;;;;;;;;;5036044;28;20048;-66
2021/04/21 12:13:21;;;;;;;6.35;1.15;;;;;;;;;;5035771;28;20037;-66
2021/04/21 12:15:51;;;;;;;5.47;1.67;;;;;;;;;;5038027;28;20347;-64
2021/04/21 12:18:26;;;;;;;4.55;1.40;;;;;;;;;;5034182;28;20625;-65
2021/04/21 12:20:52;;;;;;;7.65;1.40;;;;;;;;;;5037828;28;20047;-66
2021/04/21 12:23:28;;;;;;;7.53;1.38;;;;;;;;;;5036333;28;20176;-64
2021/04/21 12:26:02;;;;;;;6.72;1.25;;;;;;;;;;5035794;28;20041;-66
2021/04/21 12:28:29;;;;;;;6.63;1.35;;;;;;;;;;5023018;28;20555;-65
2021/04/21 12:30:59;;;;;;;5.32;1.10;;;;;;;;;;5037069;28;20036;-64
2021/04/21 12:33:27;;;;;;;8.68;1.45;;;;;;;;;;5033715;28;20041;-65
2021/04/21 12:36:00;;;;;;;6.07;1.05;;;;;;;;;;5035435;28;20064;-65
2021/04/21 12:38:28;;;;;;;3.55;1.10;;;;;;;;;;5023659;28;20119;-65
2021/04/21 12:40:57;;;;;;;6.00;1.20;;;;;;;;;;5040931;28;20055;-65
2021/04/21 12:43:25;;;;;;;6.80;1.90;;;;;;;;;;5034929;28;20028;-65
2021/04/21 12:45:51;;;;;;;8.43;1.38;;;;;;;;;;5035495;28;21766;-65
2021/04/21 12:48:19;;;;;;;8.50;1.80;;;;;;;;;;5014612;28;20506;-66
2021/04/21 12:50:49;;;;;;;6.18;1.30;;;;;;;;;;5034166;28;20029;-66
2021/04/21 12:53:19;;;;;;;8.23;1.50;;;;;;;;;;5035330;28;20039;-65
2021/04/21 12:55:48;;;;;;;11.15;1.67;;;;;;;;;;5036480;28;20484;-64
2021/04/21 12:58:29;;;;;;;6.38;2.13;;;;;;;;;;5034640;28;20037;-66
2021/04/21 13:01:13;;;;;;;7.93;1.40;;;;;;;;;;5036266;28;22019;-68
2021/04/21 13:03:56;;;;;;;5.80;1.50;;;;;;;;;;5034358;28;20032;-64
2021/04/21 13:06:41;;;;;;;9.15;1.80;;;;;;;;;;5037579;28;20039;-65
2021/04/21 13:09:29;;;;;;;10.25;1.90;;;;;;;;;;5057960;28;20165;-64
2021/04/21 13:12:02;;;;;;;4.63;1.05;;;;;;;;;;5042329;28;20176;-64
2021/04/21 13:14:48;;;;;;;3.83;0.82;;;;;;;;;;5060321;28;20043;-64
2021/04/21 13:17:44;;;;;;;5.03;0.85;;;;;;;;;;5044241;28;20510;-65
2021/04/21 13:20:43;;;;;;;5.28;0.93;;;;;;;;;;5048381;28;20112;-65
2021/04/21 13:23:27;;;;;;;4.10;1.05;;;;;;;;;;5042923;28;20051;-65
2021/04/21 13:26:13;;;;;;;;;;;;;;;;;;5043370;28;20055;-66
2021/04/21 13:29:01;;;;;;;7.18;1.02;;;;;;;;;;5055045;28;19922;-65
2021/04/21 13:31:45;;;;;;;6.18;1.10;;;;;;;;;;5059861;28;20090;-65
2021/04/21 13:34:39;;;;;;;3.85;0.65;;;;;;;;;;5047717;28;20047;-67
2021/04/21 13:37:27;;;;;;;;;;;;;;;;;;5058259;28;20046;-65
2021/04/21 13:40:15;;;;;;;5.57;1.45;;;;;;;;;;5039995;28;19969;-65
2021/04/21 13:42:59;;;;;;;2.85;0.75;;;;;;;;;;5027661;28;20051;-66
2021/04/21 13:45:49;;;;;;;5.97;1.50;;;;;;;;;;5033563;28;20067;-70
2021/04/21 13:48:37;;;;;;;6.50;1.42;;;;;;;;;;5059545;28;20113;-66
2021/04/21 13:51:21;;;;;;;4.45;1.20;;;;;;;;;;5057812;28;20050;-65
2021/04/21 13:54:13;;;;;;;9.25;1.20;;;;;;;;;;5040136;28;20287;-66
2021/04/21 13:56:58;;;;;;;5.03;1.13;;;;;;;;;;5055404;28;20046;-66
2021/04/21 13:59:46;;;;;;;5.75;1.63;;;;;;;;;;5041390;28;20100;-65
2021/04/21 14:02:39;;;;;;;10.15;0.95;;;;;;;;;;5040205;28;20054;-65
2021/04/21 14:05:29;;;;;;;6.72;1.20;;;;;;;;;;5059733;28;20061;-65
2021/04/21 14:08:13;;;;;;;6.38;1.10;;;;;;;;;;5060781;28;20580;-65
2021/04/21 14:10:59;;;;;;;4.80;0.80;;;;;;;;;;5063252;28;20051;-66
2021/04/21 14:13:44;;;;;;;6.78;1.60;;;;;;;;;;5048587;28;20693;-65
2021/04/21 14:16:31;;;;;;;6.40;0.95;;;;;;;;;;5054087;28;20647;-64
2021/04/21 14:19:18;;;;;;;9.80;1.08;;;;;;;;;;5052952;28;20720;-66
2021/04/21 14:22:07;;;;;;;5.10;1.27;;;;;;;;;;5054821;28;20046;-68
2021/04/21 14:24:51;;;;;;;4.70;1.52;;;;;;;;;;5037702;28;20044;-65
2021/04/21 14:27:38;;;;;;;4.97;1.30;;;;;;;;;;5042613;28;20039;-64
2021/04/21 14:30:24;;;;;;;4.47;0.95;;;;;;;;;;5044363;28;20304;-65
2021/04/21 14:33:10;;;;;;;7.65;1.23;;;;;;;;;;5062478;28;20145;-65
2021/04/21 14:35:55;;;;;;;12.85;1.50;;;;;;;;;;5058403;28;20071;-65
2021/04/21 14:38:39;;;;;;;12.32;1.10;;;;;;;;;;5030134;28;20055;-68
2021/04/21 14:41:23;;;;;;;3.00;1.10;;;;;;;;;;5040268;28;20051;-69
2021/04/21 14:44:10;;;;;;;2.35;0.75;;;;;;;;;;5045180;28;20142;-66
2021/04/21 14:46:54;;;;;;;3.70;0.55;;;;;;;;;;5059517;28;20101;-65
2021/04/21 14:49:39;;;;;;;4.93;0.70;;;;;;;;;;5055457;28;20044;-64
2021/04/21 14:52:25;;;;;;;5.80;0.93;;;;;;;;;;5056710;28;20121;-64
2021/04/21 14:55:12;;;;;;;5.28;1.67;;;;;;;;;;5044464;28;20141;-65
2021/04/21 14:58:00;;;;;;;8.45;1.33;;;;;;;;;;5042398;28;20043;-64
2021/04/21 15:00:46;;;;;;;4.22;0.90;;;;;;;;;;5057310;28;22204;-64
2021/04/21 15:03:31;;;;;;;8.07;1.27;;;;;;;;;;5042249;28;20499;-63
2021/04/21 15:06:15;;;;;;;11.32;1.52;;;;;;;;;;5057625;28;20054;-67
2021/04/21 15:09:03;;;;;;;6.70;1.40;;;;;;;;;;5036595;28;20056;-68
2021/04/21 15:11:59;;;;;;;8.07;1.33;;;;;;;;;;5040213;28;20713;-64
2021/04/21 15:14:43;;;;;;;8.80;1.70;;;;;;;;;;5000644;28;20083;-65
2021/04/21 15:17:12;;;;;;;5.80;1.30;;;;;;;;;;5000671;28;20052;-63
2021/04/21 15:19:39;;;;;;;8.77;1.35;;;;;;;;;;5002525;28;20049;-64
2021/04/21 15:22:05;;;;;;;3.28;0.93;;;;;;;;;;4983842;28;20203;-65